Time;durP1;ratioP1;P1;durP2;ratioP2;P2;SDS_P1;SDS_P2;PMS_P1;PMS_P2;Temp;Humidity;BMP_temperature;BMP_pressure;BME280_temperature;BME280_humidity;BME280_pressure;Samples;Min_cycle;Max_cycle;Signal;HPM_P1;HPM_P2
2022/06/04 00:02:03;;;;;;;9.00;4.70;;;18.90;99.90;;;;;;10277786;28;20105;-88
2022/06/04 00:07:05;;;;;;;6.28;4.32;;;19.00;99.90;;;;;;10278390;28;20038;-89
2022/06/04 00:17:29;;;;;;;5.47;3.55;;;18.90;99.90;;;;;;10296136;28;20042;-89
2022/06/04 00:22:31;;;;;;;6.32;3.78;;;18.90;99.90;;;;;;10292247;28;20050;-88
2022/06/04 00:27:33;;;;;;;7.32;4.40;;;18.90;99.90;;;;;;10298884;28;20054;-88
2022/06/04 00:32:35;;;;;;;5.35;3.45;;;18.80;99.90;;;;;;10298388;28;20062;-88
2022/06/04 00:37:37;;;;;;;6.45;3.63;;;18.80;99.90;;;;;;10298151;28;20042;-88
2022/06/04 00:42:39;;;;;;;6.38;3.90;;;18.70;99.90;;;;;;10285279;28;20053;-88
2022/06/04 00:47:41;;;;;;;7.50;3.67;;;18.60;99.90;;;;;;10298144;28;20088;-88
2022/06/04 00:52:46;;;;;;;6.45;3.58;;;18.60;99.90;;;;;;10284488;28;20050;-89
2022/06/04 00:58:12;;;;;;;5.82;3.85;;;18.40;99.90;;;;;;10293029;28;20071;-88
2022/06/04 01:03:40;;;;;;;4.38;3.30;;;18.20;99.90;;;;;;10256503;28;20583;-89
2022/06/04 01:09:02;;;;;;;5.80;3.65;;;18.10;99.90;;;;;;10261188;28;20073;-88
2022/06/04 01:14:18;;;;;;;6.97;3.67;;;18.00;99.90;;;;;;10286242;28;20055;-88
2022/06/04 01:19:49;;;;;;;7.35;3.60;;;17.90;99.90;;;;;;10268849;28;20043;-89
2022/06/04 01:25:16;;;;;;;10.73;3.55;;;17.80;99.90;;;;;;10283344;28;20058;-89
2022/06/04 01:30:34;;;;;;;6.13;3.13;;;17.80;99.90;;;;;;10292146;28;20050;-89
2022/06/04 01:35:44;;;;;;;5.25;3.50;;;17.70;99.90;;;;;;10289889;28;20278;-89
2022/06/04 01:41:03;;;;;;;5.68;2.78;;;17.60;99.90;;;;;;10275808;28;20767;-89
2022/06/04 01:46:16;;;;;;;6.47;3.53;;;17.60;99.90;;;;;;10306390;28;20058;-89
2022/06/04 01:51:24;;;;;;;5.35;3.25;;;17.60;99.90;;;;;;10303264;28;20093;-89
2022/06/04 01:56:31;;;;;;;4.25;3.67;;;17.60;99.90;;;;;;10286026;28;20066;-90
2022/06/04 02:01:35;;;;;;;5.75;2.83;;;17.50;99.90;;;;;;10301024;28;20564;-90
2022/06/04 02:07:29;;;;;;;5.70;4.15;;;17.50;99.90;;;;;;10280351;28;20058;-90
2022/06/04 02:12:14;;;;;;;8.85;3.42;;;17.40;99.90;;;;;;10302995;28;20050;-89
2022/06/04 02:17:21;;;;;;;8.18;3.58;;;17.40;99.90;;;;;;10269417;28;21061;-89
2022/06/04 02:22:23;;;;;;;4.85;3.17;;;17.30;99.90;;;;;;10284408;28;20054;-89
2022/06/04 02:27:25;;;;;;;6.15;3.78;;;17.20;99.90;;;;;;10284311;28;20046;-89
2022/06/04 02:32:36;;;;;;;4.72;3.38;;;17.20;99.90;;;;;;10281681;28;20374;-89
2022/06/04 02:37:57;;;;;;;5.07;2.85;;;17.10;99.90;;;;;;10281474;28;20061;-89
2022/06/04 02:43:05;;;;;;;3.83;2.75;;;17.00;99.90;;;;;;10275482;28;20665;-89
2022/06/04 02:48:19;;;;;;;5.35;3.28;;;17.00;99.90;;;;;;10300496;28;20043;-88
2022/06/04 02:53:23;;;;;;;5.38;3.45;;;16.90;99.90;;;;;;10279732;28;20089;-89
2022/06/04 02:58:27;;;;;;;13.00;3.42;;;16.80;99.90;;;;;;10291216;28;20059;-89
2022/06/04 03:03:29;;;;;;;4.57;2.97;;;16.80;99.90;;;;;;10275179;28;20073;-89
2022/06/04 03:08:34;;;;;;;7.35;3.00;;;16.70;99.90;;;;;;10291360;28;20065;-89
2022/06/04 03:13:36;;;;;;;7.85;3.63;;;16.70;99.90;;;;;;10285985;28;20051;-89
2022/06/04 03:18:37;;;;;;;7.25;3.67;;;16.60;99.90;;;;;;10300109;28;20394;-88
2022/06/04 03:23:39;;;;;;;6.75;3.88;;;16.60;99.90;;;;;;10271307;28;20061;-88
2022/06/04 03:28:41;;;;;;;5.30;3.83;;;16.60;99.90;;;;;;10258292;28;20118;-88
2022/06/04 03:33:43;;;;;;;5.63;3.83;;;16.60;99.90;;;;;;10257294;28;20047;-88
2022/06/04 03:38:44;;;;;;;6.78;4.10;;;16.50;99.90;;;;;;10245105;28;20106;-88
2022/06/04 03:43:48;;;;;;;4.45;3.40;;;16.50;99.90;;;;;;10257343;28;20069;-88
2022/06/04 03:48:54;;;;;;;5.13;3.20;;;16.50;99.90;;;;;;10267637;28;20042;-89
2022/06/04 03:53:56;;;;;;;7.80;3.13;;;16.50;99.90;;;;;;10253731;28;20051;-88
2022/06/04 03:58:57;;;;;;;6.30;3.00;;;16.50;99.90;;;;;;10262503;28;20066;-89
2022/06/04 04:04:01;;;;;;;6.35;3.03;;;16.60;99.90;;;;;;10246697;28;20464;-89
2022/06/04 04:09:04;;;;;;;4.78;2.53;;;16.70;99.90;;;;;;10258263;28;20066;-89
2022/06/04 04:14:07;;;;;;;5.68;3.78;;;16.80;99.90;;;;;;10259930;28;20047;-89
2022/06/04 04:19:08;;;;;;;4.90;3.40;;;16.90;99.90;;;;;;10260081;28;20050;-89
2022/06/04 04:24:10;;;;;;;6.45;2.90;;;17.00;99.90;;;;;;10255491;28;20404;-89
2022/06/04 04:29:12;;;;;;;4.25;2.65;;;17.10;99.90;;;;;;10261014;28;20077;-89
2022/06/04 04:34:14;;;;;;;4.00;2.90;;;17.20;99.90;;;;;;10240246;28;20525;-90
2022/06/04 04:39:16;;;;;;;5.38;3.30;;;17.30;99.90;;;;;;10262335;28;20093;-90
2022/06/04 04:44:22;;;;;;;6.18;3.30;;;17.40;99.90;;;;;;10255785;28;20055;-89
2022/06/04 04:49:23;;;;;;;4.78;3.00;;;17.40;99.90;;;;;;10262135;28;20065;-89
2022/06/04 04:54:27;;;;;;;6.38;2.92;;;17.60;99.90;;;;;;10256702;28;20072;-89
2022/06/04 04:59:29;;;;;;;4.65;3.15;;;17.70;99.90;;;;;;10243052;28;20050;-89
2022/06/04 05:04:30;;;;;;;4.22;3.03;;;17.90;99.90;;;;;;10257778;28;20046;-89
2022/06/04 05:09:32;;;;;;;6.60;3.75;;;18.00;99.90;;;;;;10248992;28;20551;-89
2022/06/04 05:14:35;;;;;;;4.75;3.42;;;18.10;99.90;;;;;;10256210;28;20055;-89
2022/06/04 05:19:37;;;;;;;6.43;3.13;;;18.20;99.90;;;;;;10255609;28;20058;-89
2022/06/04 05:24:38;;;;;;;4.03;2.90;;;18.20;99.90;;;;;;10255773;28;20258;-89
2022/06/04 05:29:41;;;;;;;4.20;3.20;;;18.30;99.90;;;;;;10262566;28;20100;-89
2022/06/04 05:34:43;;;;;;;5.45;2.60;;;18.30;99.90;;;;;;10247192;28;20093;-89
2022/06/04 05:39:44;;;;;;;3.55;2.95;;;18.40;99.90;;;;;;10264945;28;20061;-89
2022/06/04 05:44:46;;;;;;;5.50;3.10;;;18.50;99.90;;;;;;10244747;28;20152;-89
2022/06/04 05:49:48;;;;;;;4.85;3.10;;;18.60;99.90;;;;;;10250143;28;20069;-89
2022/06/04 05:54:50;;;;;;;2.75;2.50;;;18.80;99.90;;;;;;10243745;28;20047;-89
2022/06/04 05:59:52;;;;;;;3.67;2.90;;;19.00;99.90;;;;;;10255561;28;20668;-90
2022/06/04 06:04:54;;;;;;;2.65;2.13;;;19.10;99.90;;;;;;10254401;28;20051;-88
2022/06/04 06:09:56;;;;;;;4.85;2.95;;;19.20;99.90;;;;;;10251280;28;20058;-91
2022/06/04 06:14:58;;;;;;;3.45;2.30;;;19.40;99.90;;;;;;10261992;28;20069;-89
2022/06/04 06:20:00;;;;;;;5.90;2.95;;;19.40;99.90;;;;;;10262981;28;20062;-87
2022/06/04 06:25:06;;;;;;;4.15;2.67;;;19.60;99.90;;;;;;10264408;28;20051;-89
2022/06/04 06:30:09;;;;;;;4.18;2.40;;;19.70;99.90;;;;;;10259758;28;20057;-89
2022/06/04 06:35:11;;;;;;;2.38;2.17;;;19.80;99.90;;;;;;10248163;28;20093;-89
2022/06/04 06:40:14;;;;;;;4.70;2.35;;;19.90;99.90;;;;;;10262458;28;20569;-88
2022/06/04 06:45:16;;;;;;;3.45;2.45;;;20.10;99.90;;;;;;10234177;28;20797;-89
2022/06/04 06:50:18;;;;;;;3.25;1.98;;;20.30;99.90;;;;;;10261644;28;20061;-88
2022/06/04 06:55:20;;;;;;;2.85;1.52;;;20.40;99.90;;;;;;10257630;28;20102;-89
2022/06/04 07:00:22;;;;;;;5.45;1.40;;;20.50;99.90;;;;;;10261305;28;20074;-86
2022/06/04 07:05:24;;;;;;;1.80;1.50;;;20.60;99.90;;;;;;10249879;28;20086;-86
2022/06/04 07:10:26;;;;;;;1.90;1.67;;;20.70;99.90;;;;;;10241670;28;20055;-86
2022/06/04 07:15:28;;;;;;;1.70;1.60;;;20.90;99.90;;;;;;10240278;28;20051;-86
2022/06/04 07:20:30;;;;;;;2.50;1.75;;;20.90;99.90;;;;;;10257518;28;20065;-87
2022/06/04 07:25:33;;;;;;;5.50;1.70;;;21.10;99.90;;;;;;10246855;28;20062;-86
2022/06/04 07:30:36;;;;;;;2.95;1.98;;;21.20;99.90;;;;;;10281218;28;20043;-84
2022/06/04 07:35:38;;;;;;;4.32;1.85;;;21.30;99.90;;;;;;10280006;28;20113;-84
2022/06/04 07:40:40;;;;;;;1.98;1.83;;;21.40;99.90;;;;;;10298320;28;20038;-83
2022/06/04 07:45:41;;;;;;;2.25;2.00;;;21.40;99.90;;;;;;10285704;28;20066;-84
2022/06/04 07:50:43;;;;;;;2.63;2.03;;;21.40;99.90;;;;;;10278124;28;20057;-85
2022/06/04 07:55:45;;;;;;;2.10;1.85;;;21.60;99.90;;;;;;10284956;28;20046;-84
2022/06/04 08:00:56;;;;;;;4.03;2.25;;;21.60;99.90;;;;;;10284601;28;20390;-83
2022/06/04 08:05:59;;;;;;;4.13;2.13;;;21.80;99.90;;;;;;10279971;28;20410;-83
2022/06/04 08:11:30;;;;;;;4.45;2.42;;;22.00;99.90;;;;;;10277341;28;20046;-84
2022/06/04 08:16:27;;;;;;;2.53;2.20;;;22.10;99.90;;;;;;10297352;28;20043;-84
2022/06/04 08:21:30;;;;;;;4.47;2.30;;;22.20;99.90;;;;;;10282547;28;20044;-84
2022/06/04 08:26:32;;;;;;;4.47;2.65;;;22.20;99.90;;;;;;10278372;28;20058;-83
2022/06/04 08:31:34;;;;;;;2.22;2.00;;;22.10;99.90;;;;;;10289167;28;20050;-83
2022/06/04 08:36:36;;;;;;;2.63;2.42;;;22.20;99.90;;;;;;10278963;28;20066;-86
2022/06/04 08:41:50;;;;;;;2.65;2.45;;;22.30;99.90;;;;;;10293951;28;20058;-86
2022/06/04 08:47:00;;;;;;;3.20;2.25;;;22.40;99.90;;;;;;10263831;28;20039;-86
2022/06/04 08:52:11;;;;;;;2.58;1.98;;;22.60;99.90;;;;;;10289354;28;20116;-86
2022/06/04 08:57:32;;;;;;;4.38;1.83;;;22.90;99.90;;;;;;10288045;28;20590;-86
2022/06/04 09:03:01;;;;;;;1.95;1.60;;;22.90;99.90;;;;;;10281098;28;20058;-87
2022/06/04 09:08:09;;;;;;;3.90;2.13;;;23.20;99.90;;;;;;10272014;28;20057;-86
2022/06/04 09:13:36;;;;;;;2.10;1.90;;;23.40;99.90;;;;;;10295966;28;20047;-87
2022/06/04 09:18:37;;;;;;;2.28;2.03;;;23.50;99.90;;;;;;10253800;28;20498;-86
2022/06/04 09:23:46;;;;;;;2.00;1.85;;;23.50;99.90;;;;;;10272728;28;20057;-87
2022/06/04 09:29:05;;;;;;;1.73;1.42;;;23.30;99.90;;;;;;10246670;28;20055;-87
2022/06/04 09:34:31;;;;;;;1.73;0.98;;;23.60;99.90;;;;;;10239873;28;20363;-87
2022/06/04 09:39:39;;;;;;;3.10;1.03;;;23.90;99.90;;;;;;10240751;28;20051;-90
2022/06/04 09:45:01;;;;;;;1.13;1.00;;;24.20;99.90;;;;;;10257103;28;20058;-87
2022/06/04 09:50:17;;;;;;;1.10;0.90;;;24.40;99.90;;;;;;10254403;28;20676;-87
2022/06/04 09:55:25;;;;;;;0.93;0.82;;;24.40;99.10;;;;;;10259746;28;20536;-86
2022/06/04 10:00:34;;;;;;;1.57;0.73;;;24.60;99.20;;;;;;10258373;28;20045;-87
2022/06/04 10:05:36;;;;;;;1.17;0.70;;;24.70;97.90;;;;;;10260559;28;20142;-87
2022/06/04 10:10:42;;;;;;;2.00;0.88;;;24.80;97.20;;;;;;10260186;28;20039;-87
2022/06/04 10:15:47;;;;;;;5.00;0.80;;;24.80;96.50;;;;;;10261618;28;20051;-86
2022/06/04 10:21:22;;;;;;;0.80;0.60;;;25.00;96.30;;;;;;10262055;28;20494;-86
2022/06/04 10:26:41;;;;;;;2.25;1.10;;;25.10;95.60;;;;;;10258808;28;20054;-87
2022/06/04 10:32:08;;;;;;;2.05;0.98;;;25.30;95.60;;;;;;10274567;28;20050;-87
2022/06/04 10:37:16;;;;;;;1.85;0.98;;;25.30;95.40;;;;;;10297911;28;20043;-87
2022/06/04 10:42:53;;;;;;;5.10;0.82;;;25.70;93.40;;;;;;10295229;28;20049;-87
2022/06/04 10:48:18;;;;;;;5.50;1.00;;;25.90;93.20;;;;;;10296753;28;20804;-87
2022/06/04 10:53:40;;;;;;;1.50;1.00;;;26.10;93.30;;;;;;10288958;28;20058;-89
2022/06/04 10:58:49;;;;;;;0.82;0.50;;;26.30;92.10;;;;;;10296530;28;20481;-87
2022/06/04 11:04:22;;;;;;;1.10;0.70;;;26.40;88.00;;;;;;10276522;28;20145;-87
2022/06/04 11:09:38;;;;;;;0.70;0.60;;;26.60;89.20;;;;;;10297649;28;20493;-87
2022/06/04 11:14:57;;;;;;;1.23;0.80;;;26.40;86.10;;;;;;10271376;28;20074;-87
2022/06/04 11:20:09;;;;;;;0.68;0.60;;;26.60;85.40;;;;;;10283248;28;20031;-87
2022/06/04 11:25:27;;;;;;;2.85;0.60;;;26.60;85.60;;;;;;10287856;28;20053;-87
2022/06/04 11:30:50;;;;;;;0.60;0.60;;;26.80;82.70;;;;;;10299082;28;20050;-87
2022/06/04 11:36:09;;;;;;;2.78;0.60;;;26.90;82.10;;;;;;10270958;28;20405;-87
2022/06/04 11:41:31;;;;;;;3.42;0.70;;;27.40;81.50;;;;;;10302558;28;20046;-86
2022/06/04 11:46:57;;;;;;;1.00;0.70;;;27.60;80.30;;;;;;10292846;28;20061;-86
2022/06/04 11:52:18;;;;;;;3.45;1.00;;;27.90;79.40;;;;;;10299557;28;20044;-86
2022/06/04 11:57:43;;;;;;;1.23;0.80;;;27.90;80.70;;;;;;10292002;28;20047;-88
2022/06/04 12:02:57;;;;;;;2.33;0.93;;;28.00;78.80;;;;;;10295898;28;20050;-86
2022/06/04 12:08:04;;;;;;;3.50;0.83;;;28.30;79.60;;;;;;10294355;28;20467;-87
2022/06/04 12:13:10;;;;;;;1.50;0.90;;;28.00;79.70;;;;;;10294904;28;20077;-87
2022/06/04 12:18:32;;;;;;;2.20;0.90;;;28.10;78.60;;;;;;10300794;28;20496;-83
2022/06/04 12:28:57;;;;;;;1.00;0.68;;;27.90;79.30;;;;;;10273350;28;20137;-85
2022/06/04 12:34:01;;;;;;;0.70;0.60;;;28.20;77.40;;;;;;10280591;28;20048;-86
2022/06/04 12:39:28;;;;;;;0.90;0.50;;;28.30;77.20;;;;;;10306290;28;20051;-86
2022/06/04 12:44:33;;;;;;;0.73;0.50;;;28.40;73.40;;;;;;10282748;28;20054;-88
2022/06/04 12:49:56;;;;;;;3.87;0.50;;;28.40;74.70;;;;;;10298978;28;20050;-87
2022/06/04 12:55:11;;;;;;;1.15;0.73;;;28.40;71.00;;;;;;10283682;28;20030;-88
2022/06/04 13:00:18;;;;;;;1.35;0.60;;;28.50;72.70;;;;;;10300625;28;20054;-88
2022/06/04 13:05:26;;;;;;;0.90;0.60;;;28.40;72.10;;;;;;10269397;28;20054;-88
2022/06/04 13:10:42;;;;;;;0.57;0.57;;;28.50;71.70;;;;;;10280041;28;20046;-87
2022/06/04 13:15:52;;;;;;;0.80;0.60;;;28.50;69.60;;;;;;10294888;28;20054;-87
2022/06/04 13:20:58;;;;;;;1.08;0.60;;;28.70;69.90;;;;;;10293622;28;20053;-88
2022/06/04 13:26:00;;;;;;;1.33;0.50;;;28.90;68.20;;;;;;10298782;28;20050;-87
2022/06/04 13:31:04;;;;;;;1.92;0.60;;;28.90;67.00;;;;;;10297905;28;20991;-87
2022/06/04 13:36:07;;;;;;;2.85;0.60;;;29.10;68.00;;;;;;10303599;28;20110;-87
2022/06/04 13:46:46;;;;;;;1.05;0.70;;;29.70;67.60;;;;;;10299488;28;20050;-88
2022/06/04 13:51:53;;;;;;;1.00;0.47;;;29.90;65.90;;;;;;10299052;28;20050;-88
2022/06/04 13:56:58;;;;;;;1.15;0.60;;;30.30;65.70;;;;;;10298432;28;20050;-88
2022/06/04 14:02:04;;;;;;;0.65;0.60;;;30.40;63.10;;;;;;10297284;28;20664;-88
2022/06/04 14:07:11;;;;;;;2.40;0.60;;;30.70;61.10;;;;;;10281440;28;20109;-85
2022/06/04 14:12:18;;;;;;;0.82;0.60;;;30.70;62.10;;;;;;10286384;28;20070;-86
2022/06/04 14:17:51;;;;;;;0.85;0.70;;;30.80;61.40;;;;;;10284695;28;20046;-86
2022/06/04 14:23:09;;;;;;;1.20;0.60;;;30.80;61.60;;;;;;10294184;28;20051;-88
2022/06/04 14:28:36;;;;;;;0.93;0.88;;;30.80;60.80;;;;;;10301028;28;20043;-88
2022/06/04 14:33:39;;;;;;;0.98;0.50;;;30.70;62.10;;;;;;10293542;28;20125;-87
2022/06/04 14:38:40;;;;;;;2.15;0.60;;;30.90;60.60;;;;;;10295006;28;20062;-88
2022/06/04 14:44:08;;;;;;;0.68;0.50;;;31.30;58.40;;;;;;10289159;28;20050;-86
2022/06/04 14:49:43;;;;;;;1.30;0.70;;;31.60;57.00;;;;;;10281213;28;20035;-86
2022/06/04 14:54:48;;;;;;;4.57;0.50;;;31.70;55.90;;;;;;10281624;28;20138;-86
2022/06/04 15:00:25;;;;;;;0.43;0.43;;;31.50;57.00;;;;;;10284184;28;20097;-86
2022/06/04 15:05:31;;;;;;;2.40;0.68;;;31.50;56.40;;;;;;10302375;28;20121;-86
2022/06/04 15:11:11;;;;;;;2.08;0.50;;;31.70;57.00;;;;;;10301558;28;20387;-86
2022/06/04 15:16:22;;;;;;;0.90;0.55;;;31.60;57.30;;;;;;10277490;28;20056;-86
2022/06/04 15:21:51;;;;;;;0.60;0.60;;;31.70;57.60;;;;;;10282227;28;20073;-86
2022/06/04 15:27:18;;;;;;;0.98;0.63;;;31.70;57.00;;;;;;10278593;28;20062;-86
2022/06/04 15:38:04;;;;;;;;;;;31.90;56.50;;;;;;10293248;28;20072;-86
2022/06/04 15:43:20;;;;;;;1.77;0.57;;;32.00;55.70;;;;;;10301375;28;19930;-86
2022/06/04 15:48:27;;;;;;;2.47;0.50;;;31.90;55.60;;;;;;10294299;28;20066;-86
2022/06/04 15:59:18;;;;;;;2.22;0.82;;;32.00;56.20;;;;;;10277059;28;20042;-86
2022/06/04 16:04:22;;;;;;;1.03;0.60;;;31.80;54.40;;;;;;10302075;28;20046;-86
2022/06/04 16:09:29;;;;;;;1.02;0.50;;;32.10;53.30;;;;;;10280199;28;20109;-86
2022/06/04 16:15:05;;;;;;;0.68;0.50;;;32.30;53.10;;;;;;10290647;28;20053;-86
2022/06/04 16:20:27;;;;;;;0.70;0.47;;;32.30;52.10;;;;;;10290829;28;20050;-88
2022/06/04 16:26:08;;;;;;;0.70;0.40;;;32.20;51.90;;;;;;10267047;28;20093;-86
2022/06/04 16:31:11;;;;;;;0.60;0.60;;;32.60;51.50;;;;;;10264321;28;20039;-87
2022/06/04 16:36:14;;;;;;;0.73;0.60;;;32.80;52.50;;;;;;10286670;28;20058;-87
2022/06/04 16:47:14;;;;;;;1.17;0.50;;;33.00;52.90;;;;;;10277753;28;20068;-87
2022/06/04 16:52:26;;;;;;;2.40;0.60;;;32.90;53.50;;;;;;10280101;28;20049;-86
2022/06/04 16:57:28;;;;;;;2.80;0.60;;;32.80;53.70;;;;;;10281127;28;20050;-87
2022/06/04 17:02:32;;;;;;;2.83;0.70;;;32.80;53.60;;;;;;10305135;28;20049;-86
2022/06/04 17:07:56;;;;;;;0.95;0.70;;;32.30;54.10;;;;;;10302981;28;20046;-86
2022/06/04 17:13:20;;;;;;;0.60;0.60;;;32.00;54.40;;;;;;10248472;28;20050;-88
2022/06/04 17:19:01;;;;;;;0.88;0.70;;;32.00;55.00;;;;;;10300069;28;20038;-87
2022/06/04 17:24:31;;;;;;;1.55;0.65;;;31.60;56.00;;;;;;10332530;28;20065;-87
2022/06/04 17:30:11;;;;;;;0.90;0.68;;;31.70;55.80;;;;;;10302999;28;20058;-88
2022/06/04 17:35:40;;;;;;;1.50;0.55;;;31.70;56.00;;;;;;10317726;28;20120;-87
2022/06/04 17:41:00;;;;;;;0.82;0.60;;;31.60;56.40;;;;;;10311560;28;20050;-87
2022/06/04 17:46:02;;;;;;;2.00;0.60;;;31.60;55.50;;;;;;10298946;28;20053;-88
2022/06/04 17:51:05;;;;;;;0.60;0.55;;;31.90;55.50;;;;;;10311495;28;20046;-87
2022/06/04 17:56:08;;;;;;;1.60;0.57;;;31.70;55.80;;;;;;10304475;28;20055;-88
2022/06/04 18:01:10;;;;;;;1.17;0.70;;;31.40;55.20;;;;;;10285905;28;20559;-87
2022/06/04 18:06:12;;;;;;;0.85;0.70;;;31.20;55.40;;;;;;10313679;28;20074;-88
2022/06/04 18:11:14;;;;;;;2.03;0.65;;;31.00;56.30;;;;;;10320737;28;20050;-87
2022/06/04 18:16:17;;;;;;;3.80;0.80;;;30.50;57.30;;;;;;10317859;28;20051;-90
2022/06/04 18:21:19;;;;;;;0.80;0.80;;;29.80;58.90;;;;;;10317156;28;20047;-89
2022/06/04 18:26:22;;;;;;;1.20;1.00;;;29.30;60.40;;;;;;10325360;28;20043;-87
2022/06/04 18:31:26;;;;;;;1.02;0.77;;;28.70;61.70;;;;;;10253523;28;20057;-86
2022/06/04 18:36:32;;;;;;;2.57;1.07;;;28.20;63.20;;;;;;10290584;28;20141;-86
2022/06/04 18:41:34;;;;;;;1.77;1.23;;;27.70;64.60;;;;;;10293971;28;20056;-87
2022/06/04 18:57:20;;;;;;;2.50;1.40;;;26.70;67.80;;;;;;10309000;28;20054;-83
2022/06/04 19:02:22;;;;;;;2.80;1.40;;;26.40;68.90;;;;;;10340385;28;20043;-88
2022/06/04 19:18:12;;;;;;;3.08;1.25;;;25.60;74.10;;;;;;10325111;28;20047;-87
2022/06/04 19:28:35;;;;;;;2.60;1.88;;;25.10;76.00;;;;;;10283315;28;20061;-88
2022/06/04 19:33:37;;;;;;;1.77;1.45;;;24.80;77.70;;;;;;10291501;28;20509;-89
2022/06/04 19:38:39;;;;;;;4.25;1.50;;;24.60;79.10;;;;;;10295754;28;20077;-88
2022/06/04 19:43:41;;;;;;;2.17;1.88;;;24.40;80.20;;;;;;10273763;28;20451;-88
2022/06/04 19:48:43;;;;;;;1.67;1.58;;;24.20;81.70;;;;;;10281330;28;20057;-88
2022/06/04 19:59:07;;;;;;;5.63;1.65;;;23.80;84.80;;;;;;10286450;28;20061;-90
2022/06/04 20:04:09;;;;;;;1.60;1.50;;;23.60;86.40;;;;;;10290723;28;20053;-87
2022/06/04 20:09:11;;;;;;;2.10;1.90;;;23.40;88.30;;;;;;10288464;28;20074;-87
2022/06/04 20:14:13;;;;;;;2.30;2.08;;;23.20;90.00;;;;;;10291622;28;20170;-87
2022/06/04 20:19:15;;;;;;;2.70;2.10;;;23.10;90.50;;;;;;10288200;28;22108;-87
2022/06/04 20:24:17;;;;;;;3.13;1.75;;;22.90;91.30;;;;;;10309236;28;20061;-88
2022/06/04 20:29:19;;;;;;;2.20;2.03;;;22.70;92.00;;;;;;10290363;28;20106;-88
2022/06/04 20:34:21;;;;;;;2.28;2.08;;;22.60;92.80;;;;;;10297319;28;20059;-88
2022/06/04 20:39:23;;;;;;;4.82;2.88;;;22.40;93.90;;;;;;10275744;28;20076;-88
2022/06/04 20:44:25;;;;;;;3.55;2.30;;;22.20;94.40;;;;;;10291189;28;20050;-88
2022/06/04 20:49:27;;;;;;;3.35;2.08;;;22.00;95.80;;;;;;10275302;28;20065;-88
2022/06/04 20:54:29;;;;;;;2.35;2.15;;;21.80;97.00;;;;;;10275814;28;20096;-88
2022/06/04 20:59:31;;;;;;;2.58;2.35;;;21.70;98.40;;;;;;10304854;28;20046;-88
2022/06/04 21:04:33;;;;;;;3.15;2.03;;;21.50;99.60;;;;;;10297867;28;20081;-88
2022/06/04 21:09:35;;;;;;;7.72;2.95;;;21.30;99.90;;;;;;10306508;28;20055;-88
2022/06/04 21:14:36;;;;;;;3.70;2.90;;;21.20;99.90;;;;;;10310941;28;20081;-88
2022/06/04 21:19:38;;;;;;;3.47;3.10;;;21.10;99.90;;;;;;10285259;28;20050;-88
2022/06/04 21:24:40;;;;;;;3.80;2.67;;;20.90;99.90;;;;;;10299075;28;20058;-88
2022/06/04 21:29:42;;;;;;;3.45;2.67;;;20.80;99.90;;;;;;10295403;28;20098;-88
2022/06/04 21:40:05;;;;;;;2.83;2.58;;;20.60;99.90;;;;;;10290714;28;20094;-88
2022/06/04 21:45:14;;;;;;;2.88;2.67;;;20.50;99.90;;;;;;10276116;28;20059;-87
2022/06/04 21:50:31;;;;;;;5.32;3.03;;;20.40;99.90;;;;;;10297894;28;20064;-88
2022/06/04 21:55:33;;;;;;;6.18;3.08;;;20.30;99.90;;;;;;10313340;28;20322;-87
2022/06/04 22:00:35;;;;;;;3.42;2.88;;;20.30;99.90;;;;;;10289195;28;20057;-87
2022/06/04 22:05:38;;;;;;;2.88;2.65;;;20.20;99.90;;;;;;10293832;28;20141;-88
2022/06/04 22:10:40;;;;;;;4.22;2.85;;;20.10;99.90;;;;;;10283240;28;20042;-87
2022/06/04 22:15:42;;;;;;;3.45;2.85;;;20.10;99.90;;;;;;10311092;28;20054;-88
2022/06/04 22:20:47;;;;;;;2.80;2.60;;;20.00;99.90;;;;;;10291944;28;20058;-87
2022/06/04 22:25:49;;;;;;;4.50;3.05;;;19.90;99.90;;;;;;10299806;28;20070;-88
2022/06/04 22:30:52;;;;;;;3.22;2.92;;;19.90;99.90;;;;;;10312945;28;20047;-87
2022/06/04 22:35:53;;;;;;;3.42;3.13;;;19.80;99.90;;;;;;10313817;28;20046;-87
2022/06/04 22:41:04;;;;;;;3.20;2.90;;;19.70;99.90;;;;;;10294070;28;20050;-87
2022/06/04 22:46:33;;;;;;;3.20;2.90;;;19.60;99.90;;;;;;10307912;28;20051;-87
2022/06/04 22:51:53;;;;;;;4.10;3.20;;;19.50;99.90;;;;;;10280288;28;20141;-87
2022/06/04 22:56:57;;;;;;;3.63;3.33;;;19.40;99.90;;;;;;10281750;28;20056;-87
2022/06/04 23:02:00;;;;;;;3.42;3.13;;;19.40;99.90;;;;;;10310644;28;20050;-86
2022/06/04 23:07:03;;;;;;;4.13;3.30;;;19.20;99.90;;;;;;10286752;28;20055;-87
2022/06/04 23:23:04;;;;;;;3.10;2.85;;;19.20;99.90;;;;;;10294900;28;20049;-87
2022/06/04 23:28:09;;;;;;;3.70;2.78;;;19.10;99.90;;;;;;10293665;28;20061;-87
2022/06/04 23:33:11;;;;;;;2.83;2.15;;;19.10;99.90;;;;;;10278677;28;20569;-87
2022/06/04 23:38:13;;;;;;;3.22;2.63;;;19.00;99.90;;;;;;10293704;28;20051;-91
2022/06/04 23:43:16;;;;;;;7.30;3.10;;;19.00;99.90;;;;;;10287688;28;20073;-87
2022/06/04 23:48:19;;;;;;;4.95;3.30;;;18.90;99.90;;;;;;10286588;28;20051;-87
2022/06/04 23:53:24;;;;;;;3.13;2.90;;;18.90;99.90;;;;;;10308781;28;20039;-87
2022/06/04 23:58:25;;;;;;;4.40;3.35;;;18.90;99.90;;;;;;10271060;28;20156;-86
